createdAt,value
2023-03-23T15:59:56.628Z,24.90
2023-03-23T16:03:02.204Z,24.59
2023-03-23T16:06:12.018Z,24.10
2023-03-23T16:09:20.949Z,24.74
2023-03-23T16:12:25.008Z,24.73
2023-03-23T16:15:27.850Z,23.70
2023-03-23T16:18:32.633Z,23.05
2023-03-23T16:21:35.740Z,22.89
2023-03-23T16:24:38.870Z,22.35
2023-03-23T16:27:42.438Z,21.67
2023-03-23T16:30:46.694Z,21.35
2023-03-23T16:33:49.582Z,21.22
2023-03-23T16:36:53.074Z,21.04
2023-03-23T16:39:55.917Z,20.88
2023-03-23T16:43:00.666Z,20.69
2023-03-23T16:46:03.553Z,20.51
2023-03-23T16:49:06.713Z,20.10
2023-03-23T16:52:10.230Z,19.75
2023-03-23T16:55:13.582Z,19.40
2023-03-23T16:58:18.231Z,19.10
2023-03-23T17:01:21.321Z,18.76
2023-03-23T17:04:26.244Z,18.44
2023-03-23T17:07:29.310Z,18.13
2023-03-23T17:10:32.556Z,17.75
2023-03-23T17:13:35.781Z,17.39
2023-03-23T17:16:40.347Z,17.27
2023-03-23T17:19:43.406Z,16.91
2023-03-23T17:22:47.257Z,16.77
2023-03-23T17:25:50.697Z,16.63
2023-03-23T17:28:54.665Z,16.24
2023-03-23T17:31:57.671Z,16.02
2023-03-23T17:35:00.965Z,15.78
2023-03-23T17:38:04.679Z,15.50
2023-03-23T17:41:08.381Z,15.44
2023-03-23T17:44:11.356Z,15.16
2023-03-23T17:47:15.911Z,15.05
2023-03-23T17:50:19.997Z,14.87
2023-03-23T17:53:22.811Z,14.69
2023-03-23T17:56:26.006Z,14.55
2023-03-23T17:59:29.778Z,14.33
2023-03-23T18:02:32.897Z,14.19
2023-03-23T18:05:39.848Z,14.04
2023-03-23T18:08:42.815Z,13.88
2023-03-23T18:11:46.683Z,13.79
2023-03-23T18:14:50.249Z,13.61
2023-03-23T18:17:54.557Z,13.41
2023-03-23T18:21:02.093Z,13.35
2023-03-23T18:24:09.300Z,13.24
2023-03-23T18:27:12.186Z,13.05
2023-03-23T18:30:15.868Z,12.98
2023-03-23T18:33:20.553Z,12.90
2023-03-23T18:36:26.576Z,12.79
2023-03-23T18:39:32.014Z,12.71
2023-03-23T18:42:35.247Z,12.59
2023-03-23T18:45:38.580Z,12.48
2023-03-23T18:48:42.133Z,12.41
2023-03-23T18:51:45.068Z,12.37
2023-03-23T18:54:48.511Z,12.32
2023-03-23T18:57:51.730Z,12.20
2023-03-23T19:00:57.501Z,12.11
2023-03-23T19:04:00.966Z,11.97
2023-03-23T19:07:13.376Z,11.91
2023-03-23T19:10:17.583Z,11.81
2023-03-23T19:13:21.019Z,11.71
2023-03-23T19:16:25.159Z,11.57
2023-03-23T19:19:28.556Z,11.45
2023-03-23T19:22:33.084Z,11.40
2023-03-23T19:25:36.742Z,11.33
2023-03-23T19:31:47.813Z,10.99
2023-03-23T19:34:51.398Z,10.86
2023-03-23T19:38:00.864Z,10.80
2023-03-23T19:41:05.815Z,10.68
2023-03-23T19:44:09.312Z,10.72
2023-03-23T19:47:12.732Z,10.73
2023-03-23T19:50:17.270Z,10.69
2023-03-23T19:53:20.809Z,10.65
2023-03-23T19:56:25.396Z,10.58
2023-03-23T19:59:29.000Z,10.45
2023-03-23T20:02:32.241Z,10.32
2023-03-23T20:05:36.322Z,10.27
2023-03-23T20:08:45.445Z,10.24
2023-03-23T20:11:50.219Z,10.20
2023-03-23T20:14:53.536Z,10.10
2023-03-23T20:18:01.152Z,10.10
2023-03-23T20:21:09.874Z,9.93
2023-03-23T20:24:13.290Z,9.85
2023-03-23T20:27:17.485Z,9.78
2023-03-23T20:30:20.675Z,9.83
2023-03-23T20:33:23.885Z,9.75
2023-03-23T20:36:30.083Z,9.67
2023-03-23T20:39:33.693Z,9.61
2023-03-23T20:42:36.677Z,9.56
2023-03-23T20:45:39.877Z,9.52
2023-03-23T20:48:43.006Z,9.41
2023-03-23T20:51:46.756Z,9.46
2023-03-23T20:54:51.206Z,9.32
2023-03-23T20:58:01.246Z,9.27
2023-03-23T21:01:05.752Z,9.21
2023-03-23T21:04:15.608Z,9.08
2023-03-23T21:07:23.337Z,9.09
2023-03-23T21:10:28.036Z,9.06
2023-03-23T21:13:31.733Z,8.99
2023-03-23T21:16:35.173Z,8.91
2023-03-23T21:19:38.494Z,8.86
2023-03-23T21:22:42.116Z,8.86
2023-03-23T21:25:45.730Z,8.84
2023-03-23T21:28:50.976Z,8.82
2023-03-23T21:32:05.259Z,8.78
2023-03-23T21:35:12.218Z,8.72
2023-03-23T21:38:15.191Z,8.65
2023-03-23T21:41:18.089Z,8.55
2023-03-23T21:44:27.039Z,8.44
2023-03-23T21:47:32.871Z,8.35
2023-03-23T21:50:37.882Z,8.32
2023-03-23T21:53:42.374Z,8.27
2023-03-23T21:56:45.192Z,8.20
2023-03-23T21:59:50.910Z,8.13
2023-03-23T22:02:53.975Z,8.08
2023-03-23T22:05:56.961Z,8.08
2023-03-23T22:12:10.136Z,7.97
2023-03-23T22:15:16.565Z,7.87
2023-03-23T22:18:19.311Z,7.84
2023-03-23T22:21:23.339Z,7.76
2023-03-23T22:24:26.461Z,7.69
2023-03-23T22:27:29.064Z,7.70
2023-03-23T22:30:33.345Z,7.66
2023-03-23T22:33:37.120Z,7.62
2023-03-23T22:36:41.376Z,7.56
2023-03-23T22:39:44.657Z,7.48
2023-03-23T22:42:47.427Z,7.49
2023-03-23T22:45:54.225Z,7.44
2023-03-23T22:48:57.091Z,7.38
2023-03-23T22:52:00.153Z,7.39
2023-03-23T22:55:04.825Z,7.28
2023-03-23T22:58:07.721Z,7.21
2023-03-23T23:01:14.022Z,7.17
2023-03-23T23:04:17.806Z,7.17
2023-03-23T23:07:21.729Z,7.16
2023-03-23T23:10:24.290Z,7.07
2023-03-23T23:13:27.817Z,6.98
2023-03-23T23:16:31.291Z,6.88
2023-03-23T23:19:34.016Z,6.87
2023-03-23T23:22:36.817Z,6.86
2023-03-23T23:25:39.644Z,6.82
2023-03-23T23:28:42.717Z,6.72
2023-03-23T23:31:47.624Z,6.73
2023-03-23T23:34:53.188Z,6.66
2023-03-23T23:37:55.932Z,6.62
2023-03-23T23:40:58.726Z,6.65
2023-03-23T23:44:01.860Z,6.63
2023-03-23T23:47:06.164Z,6.75
2023-03-23T23:50:11.773Z,6.77
